createdAt,value
2018-09-03T00:02:05.997Z,14.90
2018-09-03T00:04:36.904Z,14.80
2018-09-03T00:07:06.889Z,14.70
2018-09-03T00:09:42.243Z,14.70
2018-09-03T00:12:13.043Z,14.60
2018-09-03T00:14:42.706Z,14.50
2018-09-03T00:17:12.406Z,14.60
2018-09-03T00:19:41.921Z,14.60
2018-09-03T00:22:11.603Z,14.50
2018-09-03T00:24:41.648Z,14.50
2018-09-03T00:27:12.552Z,14.50
2018-09-03T00:29:42.164Z,14.50
2018-09-03T00:32:16.144Z,14.50
2018-09-03T00:34:50.073Z,14.50
2018-09-03T00:37:25.238Z,14.40
2018-09-03T00:40:01.270Z,14.40
2018-09-03T00:42:36.454Z,14.50
2018-09-03T00:45:11.654Z,14.50
2018-09-03T00:47:41.161Z,14.40
2018-09-03T00:50:10.702Z,14.30
2018-09-03T00:52:40.347Z,14.40
2018-09-03T00:55:11.226Z,14.40
2018-09-03T00:57:41.845Z,14.50
2018-09-03T01:00:10.480Z,14.60
2018-09-03T01:05:07.032Z,14.60
2018-09-03T01:07:34.894Z,14.50
2018-09-03T01:10:02.829Z,14.50
2018-09-03T01:12:32.645Z,14.40
2018-09-03T01:15:00.498Z,14.30
2018-09-03T01:17:28.405Z,14.20
2018-09-03T01:19:56.261Z,14.20
2018-09-03T01:22:24.142Z,14.20
2018-09-03T01:24:52.156Z,14.20
2018-09-03T01:27:20.050Z,14.20
2018-09-03T01:29:47.932Z,14.10
2018-09-03T01:32:15.776Z,14.10
2018-09-03T01:34:43.655Z,14.10
2018-09-03T01:37:11.537Z,14.20
2018-09-03T01:39:39.382Z,14.10
2018-09-03T01:42:08.284Z,14.10
2018-09-03T01:44:36.159Z,14.20
2018-09-03T01:47:04.104Z,14.20
2018-09-03T01:49:32.010Z,14.10
2018-09-03T01:51:59.880Z,14.00
2018-09-03T01:54:54.852Z,14.00
2018-09-03T01:57:49.095Z,13.90
2018-09-03T02:00:16.933Z,13.80
2018-09-03T02:02:45.812Z,13.70
2018-09-03T02:05:13.722Z,13.60
2018-09-03T02:07:42.587Z,13.60
2018-09-03T02:10:10.435Z,13.50
2018-09-03T02:13:13.567Z,13.50
2018-09-03T02:15:41.462Z,13.50
2018-09-03T02:18:09.334Z,13.50
2018-09-03T02:20:37.233Z,13.70
2018-09-03T02:23:05.325Z,13.70
2018-09-03T02:25:33.193Z,13.80
2018-09-03T02:28:01.077Z,13.80
2018-09-03T02:30:28.980Z,13.80
2018-09-03T02:32:56.853Z,13.90
2018-09-03T02:35:24.713Z,14.00
2018-09-03T02:37:52.550Z,14.10
2018-09-03T02:40:20.486Z,14.30
2018-09-03T02:42:48.344Z,14.40
2018-09-03T02:45:16.172Z,14.50
2018-09-03T02:47:44.023Z,14.40
2018-09-03T02:50:12.880Z,14.50
2018-09-03T02:52:40.738Z,14.50
2018-09-03T02:55:08.674Z,14.50
2018-09-03T02:57:36.598Z,14.60
2018-09-03T03:00:04.745Z,14.60
2018-09-03T03:02:32.573Z,14.60
2018-09-03T03:05:00.425Z,14.60
2018-09-03T03:07:54.794Z,14.60
2018-09-03T03:10:22.785Z,14.60
2018-09-03T03:12:50.673Z,14.50
2018-09-03T03:15:18.513Z,14.40
2018-09-03T03:17:47.408Z,14.30
2018-09-03T03:20:15.268Z,14.20
2018-09-03T03:22:43.145Z,14.10
2018-09-03T03:25:11.013Z,14.20
2018-09-03T03:27:38.876Z,14.20
2018-09-03T03:30:24.923Z,14.20
2018-09-03T03:32:54.636Z,14.20
2018-09-03T03:35:22.543Z,14.20
2018-09-03T03:37:50.525Z,14.20
2018-09-03T03:40:19.013Z,14.20
2018-09-03T03:42:47.906Z,14.20
2018-09-03T03:45:15.771Z,14.30
2018-09-03T03:47:43.641Z,14.40
2018-09-03T03:50:11.518Z,14.40
2018-09-03T03:52:39.552Z,14.40
2018-09-03T03:55:07.871Z,14.50
2018-09-03T03:57:36.306Z,14.60
2018-09-03T04:00:04.299Z,14.70
2018-09-03T04:02:39.849Z,14.80
2018-09-03T04:05:07.768Z,14.90
2018-09-03T04:07:35.604Z,15.00
2018-09-03T04:10:03.481Z,15.20
2018-09-03T04:12:31.217Z,15.20
2018-09-03T04:14:58.971Z,15.20
2018-09-03T04:17:26.772Z,15.30
2018-09-03T04:20:09.258Z,15.30
2018-09-03T04:22:37.055Z,15.40
2018-09-03T04:25:04.904Z,15.40
2018-09-03T04:27:32.731Z,15.50
2018-09-03T04:30:01.560Z,15.50
2018-09-03T04:32:29.398Z,15.50
2018-09-03T04:34:57.198Z,15.40
2018-09-03T04:37:24.979Z,15.40
2018-09-03T04:39:52.723Z,15.40
2018-09-03T04:42:20.521Z,15.40
2018-09-03T04:44:48.362Z,15.40
2018-09-03T04:47:16.557Z,15.40
2018-09-03T04:49:44.309Z,15.40
2018-09-03T04:52:12.112Z,15.30
2018-09-03T04:54:39.950Z,15.20
2018-09-03T04:57:07.680Z,15.20
2018-09-03T04:59:48.480Z,15.20
2018-09-03T05:02:16.486Z,15.20
2018-09-03T05:04:44.384Z,15.20
2018-09-03T05:07:12.292Z,15.30
2018-09-03T05:09:40.211Z,15.30
2018-09-03T05:12:08.262Z,15.40
2018-09-03T05:14:36.466Z,15.40
2018-09-03T05:17:04.760Z,15.40
2018-09-03T05:19:32.621Z,15.50
2018-09-03T05:22:00.480Z,15.60
2018-09-03T05:24:28.405Z,15.60
2018-09-03T05:26:56.447Z,15.60
2018-09-03T05:29:24.610Z,15.70
2018-09-03T05:31:52.507Z,15.70
2018-09-03T05:34:20.415Z,15.70
2018-09-03T05:36:48.297Z,15.70
2018-09-03T05:39:16.164Z,15.70
2018-09-03T05:41:44.012Z,15.70
2018-09-03T05:44:11.877Z,15.70
2018-09-03T05:46:39.759Z,15.70
2018-09-03T05:49:07.682Z,15.80
2018-09-03T05:51:35.760Z,15.90
2018-09-03T05:54:03.626Z,15.90
2018-09-03T05:56:31.458Z,16.00
2018-09-03T05:58:59.409Z,16.20
2018-09-03T06:01:27.221Z,16.30
2018-09-03T06:03:55.030Z,16.60
2018-09-03T06:06:45.480Z,16.90
2018-09-03T06:09:16.302Z,17.20
2018-09-03T06:11:44.259Z,17.40
2018-09-03T06:14:12.166Z,17.30
2018-09-03T06:16:40.012Z,17.30
2018-09-03T06:19:07.828Z,17.40
2018-09-03T06:21:35.644Z,17.20
2018-09-03T06:24:03.503Z,17.20
2018-09-03T06:26:31.464Z,17.10
2018-09-03T06:28:59.291Z,17.00
2018-09-03T06:31:27.104Z,17.00
2018-09-03T06:33:54.892Z,17.00
2018-09-03T06:36:22.669Z,17.10
2018-09-03T06:38:50.565Z,17.20
2018-09-03T06:41:18.418Z,17.40
2018-09-03T06:43:46.309Z,17.80
2018-09-03T06:46:14.095Z,18.20
2018-09-03T06:48:41.930Z,18.30
2018-09-03T06:51:10.738Z,18.30
2018-09-03T06:53:38.574Z,18.30
2018-09-03T06:56:06.449Z,18.20
2018-09-03T06:58:34.273Z,18.10
2018-09-03T07:01:02.083Z,18.10
2018-09-03T07:03:29.849Z,18.10
2018-09-03T07:05:57.719Z,18.20
2018-09-03T07:08:25.560Z,18.20
2018-09-03T07:10:53.344Z,18.30
2018-09-03T07:19:05.443Z,18.20
2018-09-03T07:21:33.246Z,18.30
2018-09-03T07:24:01.021Z,18.40
2018-09-03T07:26:30.881Z,18.40
2018-09-03T07:28:58.723Z,18.40
2018-09-03T07:31:26.497Z,18.30
2018-09-03T07:33:54.333Z,18.30
2018-09-03T07:36:22.135Z,18.30
2018-09-03T07:38:49.911Z,18.40
2018-09-03T07:41:19.865Z,18.50
2018-09-03T07:43:47.648Z,18.60
2018-09-03T07:46:15.557Z,18.60
2018-09-03T07:48:44.375Z,18.60
2018-09-03T07:51:12.219Z,18.50
2018-09-03T07:53:40.018Z,18.50
2018-09-03T07:56:07.816Z,18.60
2018-09-03T07:58:36.670Z,18.70
2018-09-03T08:01:04.667Z,18.80
2018-09-03T08:03:32.433Z,18.90
2018-09-03T08:06:00.248Z,18.90
2018-09-03T08:08:29.122Z,19.00
2018-09-03T08:10:56.920Z,19.20
2018-09-03T08:13:30.354Z,19.30
2018-09-03T08:15:58.194Z,19.40
2018-09-03T08:18:25.998Z,19.40
2018-09-03T08:20:54.619Z,19.40
2018-09-03T08:23:43.833Z,19.50
2018-09-03T08:26:28.856Z,19.50
2018-09-03T08:28:56.748Z,19.70
2018-09-03T08:31:24.649Z,19.90
2018-09-03T08:33:53.558Z,20.00
2018-09-03T08:36:21.472Z,20.00
2018-09-03T08:38:57.204Z,20.00
2018-09-03T08:41:25.016Z,20.20
2018-09-03T08:43:52.831Z,20.10
2018-09-03T08:46:21.669Z,20.10
2018-09-03T08:48:49.447Z,20.10
2018-09-03T08:51:17.244Z,20.10
2018-09-03T08:53:45.046Z,20.00
2018-09-03T08:56:12.883Z,20.00
2018-09-03T08:58:40.681Z,20.00
2018-09-03T09:01:09.587Z,20.00
2018-09-03T09:03:41.019Z,20.20
2018-09-03T09:06:09.224Z,20.20
2018-09-03T09:08:38.280Z,20.30
2018-09-03T09:11:07.201Z,20.60
2018-09-03T09:13:35.142Z,20.80
2018-09-03T09:16:03.180Z,20.80
2018-09-03T09:18:31.103Z,20.70
2018-09-03T09:20:58.970Z,20.70
2018-09-03T09:23:26.769Z,20.90
2018-09-03T09:25:54.576Z,21.10
2018-09-03T09:28:23.429Z,21.40
2018-09-03T09:30:51.787Z,21.70
2018-09-03T09:33:20.651Z,21.80
2018-09-03T09:35:48.506Z,21.80
2018-09-03T09:38:16.335Z,21.70
2018-09-03T09:40:45.180Z,21.50
2018-09-03T09:43:13.061Z,21.40
2018-09-03T09:45:40.949Z,21.30
2018-09-03T09:48:08.826Z,21.20
2018-09-03T09:50:37.607Z,21.20
2018-09-03T09:53:05.523Z,21.20
2018-09-03T09:55:34.355Z,21.20
2018-09-03T10:06:14.606Z,20.90
2018-09-03T10:08:42.477Z,20.80
2018-09-03T10:11:10.261Z,20.90
2018-09-03T10:13:38.070Z,21.00
2018-09-03T10:16:05.898Z,21.30
2018-09-03T10:18:34.004Z,21.30
2018-09-03T10:21:01.864Z,21.20
2018-09-03T10:23:29.709Z,21.40
2018-09-03T10:25:57.568Z,21.20
2018-09-03T10:28:25.544Z,21.30
2018-09-03T10:30:53.347Z,21.20
2018-09-03T10:33:21.142Z,21.20
2018-09-03T10:35:49.029Z,21.10
2018-09-03T10:38:16.864Z,20.90
2018-09-03T10:40:45.679Z,20.60
2018-09-03T10:43:13.460Z,20.60
2018-09-03T10:45:43.811Z,20.60
2018-09-03T10:48:12.553Z,20.70
2018-09-03T10:50:40.420Z,20.60
2018-09-03T10:53:08.696Z,20.60
2018-09-03T10:55:36.740Z,20.50
2018-09-03T10:58:04.535Z,20.30
2018-09-03T11:00:32.383Z,20.30
2018-09-03T11:03:00.164Z,20.20
2018-09-03T11:05:28.560Z,20.10
2018-09-03T11:07:57.104Z,20.10
2018-09-03T11:10:25.485Z,20.20
2018-09-03T11:12:53.869Z,20.30
2018-09-03T11:15:22.422Z,20.30
2018-09-03T11:17:50.832Z,20.40
2018-09-03T11:20:29.463Z,20.30
2018-09-03T11:22:58.337Z,20.40
2018-09-03T11:25:28.813Z,20.30
2018-09-03T11:27:57.276Z,20.30
2018-09-03T11:30:26.266Z,20.20
2018-09-03T11:32:56.759Z,20.20
2018-09-03T11:35:25.423Z,20.20
2018-09-03T11:37:53.933Z,20.20
2018-09-03T11:40:23.124Z,20.10
2018-09-03T11:42:51.619Z,20.10
2018-09-03T11:45:21.090Z,20.10
2018-09-03T11:47:49.572Z,20.10
2018-09-03T11:50:18.763Z,20.10
2018-09-03T11:52:47.181Z,20.20
2018-09-03T11:55:15.769Z,20.30
2018-09-03T11:57:44.181Z,20.40
2018-09-03T12:00:18.364Z,20.40
2018-09-03T12:02:46.898Z,20.40
2018-09-03T12:05:15.286Z,20.40
2018-09-03T12:07:43.735Z,20.50
2018-09-03T12:10:12.282Z,20.40
2018-09-03T12:12:40.716Z,20.30
2018-09-03T12:15:16.676Z,20.40
2018-09-03T12:17:45.146Z,20.50
2018-09-03T12:20:13.569Z,20.50
2018-09-03T12:22:41.961Z,20.50
2018-09-03T12:25:10.365Z,20.40
2018-09-03T12:27:38.814Z,20.40
2018-09-03T12:30:07.701Z,20.40
2018-09-03T12:32:36.040Z,20.40
2018-09-03T12:35:04.510Z,20.30
2018-09-03T12:37:38.968Z,20.30
2018-09-03T12:40:07.432Z,20.40
2018-09-03T12:42:35.948Z,20.30
2018-09-03T12:45:04.561Z,20.40
2018-09-03T12:47:32.977Z,20.50
2018-09-03T12:50:01.514Z,20.60
2018-09-03T12:52:30.058Z,20.60
2018-09-03T12:54:58.558Z,20.70
2018-09-03T12:57:26.940Z,20.90
2018-09-03T13:00:05.135Z,20.90
2018-09-03T13:02:23.738Z,20.80
2018-09-03T13:04:52.126Z,20.80
2018-09-03T13:07:20.463Z,20.80
2018-09-03T13:09:48.887Z,20.80
2018-09-03T13:12:17.464Z,20.60
2018-09-03T13:14:45.854Z,20.70
2018-09-03T13:17:14.352Z,20.60
2018-09-03T13:19:42.775Z,20.60
2018-09-03T13:22:12.225Z,20.50
2018-09-03T13:24:40.691Z,20.40
2018-09-03T13:27:09.180Z,20.40
2018-09-03T13:29:37.631Z,20.20
2018-09-03T13:32:05.992Z,20.20
2018-09-03T13:34:34.447Z,20.20
2018-09-03T13:37:02.883Z,20.30
2018-09-03T13:39:31.280Z,20.30
2018-09-03T13:41:59.743Z,20.30
2018-09-03T13:44:29.256Z,20.20
2018-09-03T13:46:57.673Z,20.40
2018-09-03T13:49:26.042Z,20.40
2018-09-03T13:51:54.414Z,20.40
2018-09-03T13:54:22.962Z,20.30
2018-09-03T13:56:51.379Z,20.20
2018-09-03T13:59:19.863Z,20.10
2018-09-03T14:01:48.280Z,20.10
2018-09-03T14:04:16.666Z,20.10
2018-09-03T14:06:45.132Z,20.00
2018-09-03T14:09:13.557Z,20.00
2018-09-03T14:11:42.296Z,20.00
2018-09-03T14:14:10.703Z,20.00
2018-09-03T14:16:39.200Z,19.90
2018-09-03T14:19:07.652Z,19.80
2018-09-03T14:21:36.205Z,19.70
2018-09-03T14:24:04.804Z,19.70
2018-09-03T14:26:33.235Z,19.70
2018-09-03T14:29:01.762Z,19.70
2018-09-03T14:31:30.167Z,19.70
2018-09-03T14:33:58.671Z,19.70
2018-09-03T14:36:27.091Z,19.70
2018-09-03T14:38:55.604Z,19.80
2018-09-03T14:41:24.129Z,19.70
2018-09-03T14:43:52.526Z,19.70
2018-09-03T14:46:20.925Z,19.60
2018-09-03T14:48:49.320Z,19.60
2018-09-03T14:51:18.121Z,19.60
2018-09-03T14:57:16.011Z,19.80
2018-09-03T14:59:44.331Z,19.80
2018-09-03T15:02:12.299Z,19.80
2018-09-03T15:04:40.425Z,19.80
2018-09-03T15:07:08.571Z,19.70
2018-09-03T15:09:36.523Z,19.70
2018-09-03T15:12:04.527Z,19.60
2018-09-03T15:14:32.575Z,19.60
2018-09-03T15:17:00.617Z,19.60
2018-09-03T15:19:29.615Z,19.60
2018-09-03T15:21:57.560Z,19.60
2018-09-03T15:24:25.686Z,19.70
2018-09-03T15:26:53.642Z,19.80
2018-09-03T15:29:21.596Z,19.80
2018-09-03T15:31:49.631Z,19.80
2018-09-03T15:34:17.622Z,19.80
2018-09-03T15:36:45.658Z,19.80
2018-09-03T15:39:13.652Z,19.70
2018-09-03T15:41:41.819Z,19.80
2018-09-03T15:44:09.817Z,19.80
2018-09-03T15:46:37.748Z,19.80
2018-09-03T15:49:05.890Z,19.90
2018-09-03T15:51:33.750Z,19.80
2018-09-03T15:54:01.879Z,19.80
2018-09-03T15:56:29.759Z,19.80
2018-09-03T15:58:58.607Z,19.70
2018-09-03T16:01:26.400Z,19.60
2018-09-03T16:03:54.468Z,19.70
2018-09-03T16:06:22.261Z,19.70
2018-09-03T16:08:50.114Z,19.70
2018-09-03T16:11:19.810Z,19.60
2018-09-03T16:13:47.873Z,19.70
2018-09-03T16:16:15.696Z,19.60
2018-09-03T16:18:44.898Z,19.70
2018-09-03T16:21:12.712Z,19.60
2018-09-03T16:23:40.556Z,19.50
2018-09-03T16:26:08.350Z,19.50
2018-09-03T16:28:36.173Z,19.50
2018-09-03T16:31:03.992Z,19.50
2018-09-03T16:33:32.066Z,19.50
2018-09-03T16:35:59.930Z,19.50
2018-09-03T16:38:27.793Z,19.50
2018-09-03T16:40:55.633Z,19.50
2018-09-03T16:43:23.521Z,19.40
2018-09-03T16:45:52.422Z,19.40
2018-09-03T16:48:20.177Z,19.40
2018-09-03T16:50:48.114Z,19.40
2018-09-03T16:53:15.895Z,19.30
2018-09-03T16:55:43.859Z,19.30
2018-09-03T16:58:11.716Z,19.20
2018-09-03T17:00:39.624Z,19.10
2018-09-03T17:03:07.434Z,19.00
2018-09-03T17:05:35.327Z,19.00
2018-09-03T17:08:03.239Z,19.00
2018-09-03T17:10:31.108Z,19.00
2018-09-03T17:12:58.912Z,19.00
2018-09-03T17:15:26.808Z,18.90
2018-09-03T17:17:54.633Z,19.00
2018-09-03T17:20:26.288Z,19.10
2018-09-03T17:22:54.354Z,19.10
2018-09-03T17:25:22.345Z,19.10
2018-09-03T17:27:50.458Z,19.10
2018-09-03T17:30:18.560Z,19.10
2018-09-03T17:32:46.507Z,19.10
2018-09-03T17:35:14.469Z,19.10
2018-09-03T17:37:42.402Z,19.00
2018-09-03T17:40:10.366Z,19.00
2018-09-03T17:42:38.267Z,19.00
2018-09-03T17:45:06.687Z,19.00
2018-09-03T17:47:34.802Z,19.00
2018-09-03T17:50:02.759Z,19.10
2018-09-03T17:52:30.716Z,19.10
2018-09-03T17:54:58.674Z,19.10
2018-09-03T17:57:26.576Z,19.10
2018-09-03T17:59:54.541Z,19.10
2018-09-03T18:02:22.875Z,19.10
2018-09-03T18:04:50.989Z,19.00
2018-09-03T18:07:19.740Z,19.00
2018-09-03T18:09:47.768Z,19.00
2018-09-03T18:12:15.970Z,19.00
2018-09-03T18:14:43.868Z,19.00
2018-09-03T18:17:11.798Z,19.00
2018-09-03T18:19:39.818Z,19.00
2018-09-03T18:22:07.780Z,19.00
2018-09-03T18:24:35.642Z,19.00
2018-09-03T18:27:03.564Z,19.00
2018-09-03T18:29:31.956Z,19.00
2018-09-03T18:32:00.848Z,19.00
2018-09-03T18:34:29.801Z,18.90
2018-09-03T18:36:58.949Z,19.00
2018-09-03T18:39:27.845Z,19.00
2018-09-03T18:41:56.986Z,19.00
2018-09-03T18:44:25.176Z,19.00
2018-09-03T18:46:53.767Z,19.00
2018-09-03T18:49:22.261Z,19.00
2018-09-03T18:51:51.034Z,19.00
2018-09-03T18:54:19.370Z,19.00
2018-09-03T18:56:47.829Z,19.00
2018-09-03T18:59:17.311Z,19.00
2018-09-03T19:01:45.789Z,19.00
2018-09-03T19:04:14.085Z,19.00
2018-09-03T19:06:42.431Z,19.00
2018-09-03T19:09:10.819Z,19.00
2018-09-03T19:11:39.338Z,19.00
2018-09-03T19:14:11.328Z,19.00
2018-09-03T19:20:39.809Z,19.00
2018-09-03T19:23:09.293Z,19.00
2018-09-03T19:25:37.992Z,19.00
2018-09-03T19:28:06.894Z,19.00
2018-09-03T19:30:35.897Z,19.00
2018-09-03T19:33:05.133Z,19.00
2018-09-03T19:35:34.415Z,19.00
2018-09-03T19:38:03.556Z,19.00
2018-09-03T19:40:32.512Z,19.00
2018-09-03T19:43:02.186Z,19.00
2018-09-03T19:45:31.051Z,19.00
2018-09-03T19:48:00.339Z,19.00
2018-09-03T19:50:29.805Z,18.90
2018-09-03T19:52:59.237Z,18.90
2018-09-03T19:55:28.097Z,18.80
2018-09-03T19:57:57.958Z,18.70
2018-09-03T20:00:28.215Z,18.70
2018-09-03T20:03:00.197Z,18.60
2018-09-03T20:05:31.934Z,18.60
2018-09-03T20:10:41.279Z,18.60
2018-09-03T20:13:14.729Z,18.70
2018-09-03T20:15:45.378Z,18.70
2018-09-03T20:18:13.940Z,18.70
2018-09-03T20:20:42.427Z,18.60
2018-09-03T20:23:11.005Z,18.60
2018-09-03T20:25:39.334Z,18.60
2018-09-03T20:28:07.848Z,18.60
2018-09-03T20:30:36.514Z,18.50
2018-09-03T20:33:05.257Z,18.50
2018-09-03T20:35:34.704Z,18.50
2018-09-03T20:38:04.312Z,18.50
2018-09-03T20:40:33.073Z,18.50
2018-09-03T20:43:10.786Z,18.50
2018-09-03T20:45:39.919Z,18.50
2018-09-03T20:48:09.000Z,18.40
2018-09-03T20:50:38.169Z,18.40
2018-09-03T20:53:06.616Z,18.30
2018-09-03T20:55:36.002Z,18.30
2018-09-03T20:58:06.638Z,18.30
2018-09-03T21:00:35.501Z,18.30
2018-09-03T21:03:04.821Z,18.30
2018-09-03T21:05:34.090Z,18.40
2018-09-03T21:08:04.507Z,18.40
2018-09-03T21:10:33.702Z,18.50
2018-09-03T21:13:02.964Z,18.50
2018-09-03T21:15:31.647Z,18.60
2018-09-03T21:18:00.631Z,18.60
2018-09-03T21:20:29.476Z,18.50
2018-09-03T21:22:58.148Z,18.60
2018-09-03T21:25:26.445Z,18.60
2018-09-03T21:27:55.656Z,18.60
2018-09-03T21:30:24.389Z,18.60
2018-09-03T21:32:52.830Z,18.60
2018-09-03T21:35:21.313Z,18.60
2018-09-03T21:37:49.736Z,18.60
2018-09-03T21:40:18.120Z,18.70
2018-09-03T21:42:46.550Z,18.70
2018-09-03T21:45:15.088Z,18.70
2018-09-03T21:47:43.651Z,18.70
2018-09-03T21:50:12.413Z,18.70
2018-09-03T21:52:40.859Z,18.80
2018-09-03T21:55:09.435Z,18.70
2018-09-03T21:57:37.818Z,18.70
2018-09-03T22:00:06.733Z,18.70
2018-09-03T22:02:35.420Z,18.70
2018-09-03T22:05:03.883Z,18.80
2018-09-03T22:07:32.324Z,18.80
2018-09-03T22:10:00.748Z,18.80
2018-09-03T22:12:29.457Z,18.70
2018-09-03T22:14:58.642Z,18.70
2018-09-03T22:17:27.162Z,18.70
2018-09-03T22:19:55.392Z,18.70
2018-09-03T22:22:23.684Z,18.70
2018-09-03T22:24:51.952Z,18.70
2018-09-03T22:27:20.328Z,18.70
2018-09-03T22:29:48.548Z,18.70
2018-09-03T22:32:16.881Z,18.60
2018-09-03T22:34:45.122Z,18.60
2018-09-03T22:37:13.272Z,18.60
2018-09-03T22:39:41.700Z,18.50
2018-09-03T22:42:10.244Z,18.60
2018-09-03T22:44:38.463Z,18.50
2018-09-03T22:47:07.355Z,18.50
2018-09-03T22:49:35.808Z,18.50
2018-09-03T22:52:04.314Z,18.40
2018-09-03T22:54:32.844Z,18.30
2018-09-03T22:57:01.339Z,18.30
2018-09-03T22:59:29.650Z,18.30
2018-09-03T23:01:57.956Z,18.30
2018-09-03T23:04:26.410Z,18.20
2018-09-03T23:06:54.523Z,18.30
2018-09-03T23:09:22.439Z,18.30
2018-09-03T23:14:23.732Z,18.50
2018-09-03T23:16:52.706Z,18.50
2018-09-03T23:19:20.706Z,18.60
2018-09-03T23:21:48.525Z,18.60
2018-09-03T23:24:16.688Z,18.60
2018-09-03T23:26:44.528Z,18.60
2018-09-03T23:29:12.479Z,18.60
2018-09-03T23:31:40.337Z,18.60
2018-09-03T23:34:08.135Z,18.70
2018-09-03T23:36:38.114Z,18.60
2018-09-03T23:39:06.676Z,18.60
2018-09-03T23:41:34.674Z,18.60
2018-09-03T23:44:03.769Z,18.60
2018-09-03T23:47:05.601Z,18.60
2018-09-03T23:49:37.176Z,18.60
2018-09-03T23:52:15.955Z,18.60
2018-09-03T23:54:44.174Z,18.60
2018-09-03T23:57:12.027Z,18.60
2018-09-03T23:59:52.949Z,18.70
